Time;durP1;ratioP1;P1;durP2;ratioP2;P2;SDS_P1;SDS_P2;PMS_P1;PMS_P2;Temp;Humidity;BMP_temperature;BMP_pressure;BME280_temperature;BME280_humidity;BME280_pressure;Samples;Min_cycle;Max_cycle;Signal;HPM_P1;HPM_P2
2023/09/23 00:01:16;;;;;;;;;;;;;;;;;;7364792;19;1814;-61
2023/09/23 00:03:45;;;;;;;;;;;;;;;;;;7366094;19;877;-61
2023/09/23 00:06:13;;;;;;;;;;;;;;;;;;7369094;19;806;-60
2023/09/23 00:08:41;;;;;;;;;;;;;;;;;;7365161;19;1342;-61
2023/09/23 00:11:10;;;;;;;;;;;;;;;;;;7366784;19;869;-63
2023/09/23 00:13:38;;;;;;;;;;;;;;;;;;7365643;19;870;-62
2023/09/23 00:16:07;;;;;;;;;;;;;;;;;;7366945;19;1441;-61
2023/09/23 00:18:35;;;;;;;;;;;;;;;;;;7367984;19;1844;-61
2023/09/23 00:21:05;;;;;;;;;;;;;;;;;;7368065;19;1853;-61
2023/09/23 00:23:34;;;;;;;;;;;;;;;;;;7370429;19;1547;-61
2023/09/23 00:26:03;;;;;;;;;;;;;;;;;;7365343;19;1192;-61
2023/09/23 00:28:32;;;;;;;;;;;;;;;;;;7376653;19;1569;-61
2023/09/23 00:31:00;;;;;;;;;;;;;;;;;;7371314;19;840;-59
2023/09/23 00:33:30;;;;;;;;;;;;;;;;;;7372267;19;857;-60
2023/09/23 00:35:59;;;;;;;;;;;;;;;;;;7371624;19;760;-62
2023/09/23 00:38:27;;;;;;;;;;;;;;;;;;7373116;19;1505;-62
2023/09/23 00:40:55;;;;;;;;;;;;;;;;;;7372599;19;1830;-62
2023/09/23 00:43:23;;;;;;;;;;;;;;;;;;7372276;19;848;-63
2023/09/23 00:45:54;;;;;;;;;;;;;;;;;;7370878;19;893;-61
2023/09/23 00:48:23;;;;;;;;;;;;;;;;;;7372738;19;1308;-62
2023/09/23 00:50:51;;;;;;;;;;;;;;;;;;7375352;19;813;-61
2023/09/23 00:53:20;;;;;;;;;;;;;;;;;;7372909;19;1432;-62
2023/09/23 00:55:52;;;;;;;;;;;;;;;;;;7375365;19;1715;-63
2023/09/23 00:58:21;;;;;;;;;;;;;;;;;;7374479;19;1540;-62
2023/09/23 01:00:51;;;;;;;;;;;;;;;;;;7374916;19;1861;-62
2023/09/23 01:03:20;;;;;;;;;;;;;;;;;;7375514;19;1404;-62
2023/09/23 01:05:48;;;;;;;;;;;;;;;;;;7370164;19;1635;-61
2023/09/23 01:08:22;;;;;;;;;;;;;;;;;;7374229;19;1334;-62
2023/09/23 01:10:50;;;;;;;;;;;;;;;;;;7373906;19;1634;-62
2023/09/23 01:13:21;;;;;;;;;;;;;;;;;;7373415;19;1739;-60
2023/09/23 01:15:49;;;;;;;;;;;;;;;;;;7374962;19;1667;-60
2023/09/23 01:18:18;;;;;;;;;;;;;;;;;;7372441;19;1408;-60
2023/09/23 01:20:48;;;;;;;;;;;;;;;;;;7373492;19;1854;-60
2023/09/23 01:23:17;;;;;;;;;;;;;;;;;;7373926;19;1980;-56
2023/09/23 01:25:45;;;;;;;;;;;;;;;;;;7373797;19;1312;-61
2023/09/23 01:28:14;;;;;;;;;;;;;;;;;;7372956;19;1470;-60
2023/09/23 01:30:43;;;;;;;;;;;;;;;;;;7372632;19;1428;-60
2023/09/23 01:33:12;;;;;;;;;;;;;;;;;;7373413;19;1712;-60
2023/09/23 01:35:40;;;;;;;;;;;;;;;;;;7371633;19;1669;-62
2023/09/23 01:38:08;;;;;;;;;;;;;;;;;;7369698;19;1620;-61
2023/09/23 01:40:36;;;;;;;;;;;;;;;;;;7374540;19;1896;-61
2023/09/23 01:43:09;;;;;;;;;;;;;;;;;;7370877;19;1756;-61
2023/09/23 01:45:38;;;;;;;;;;;;;;;;;;7369381;19;1710;-62
2023/09/23 01:48:06;;;;;;;;;;;;;;;;;;7372134;19;1753;-60
2023/09/23 01:50:34;;;;;;;;;;;;;;;;;;7372490;19;1872;-60
2023/09/23 01:53:03;;;;;;;;;;;;;;;;;;7372201;19;1735;-61
2023/09/23 01:55:32;;;;;;;;;;;;;;;;;;7369823;19;1467;-62
2023/09/23 01:58:00;;;;;;;;;;;;;;;;;;7372285;19;1829;-60
2023/09/23 02:00:29;;;;;;;;;;;;;;;;;;7370248;19;1867;-60
2023/09/23 02:02:57;;;;;;;;;;;;;;;;;;7370840;19;1867;-60
2023/09/23 02:05:27;;;;;;;;;;;;;;;;;;7369267;19;1694;-61
2023/09/23 02:07:55;;;;;;;;;;;;;;;;;;7371885;19;1762;-62
2023/09/23 02:10:24;;;;;;;;;;;;;;;;;;7368888;19;1359;-63
2023/09/23 02:12:52;;;;;;;;;;;;;;;;;;7371412;19;1354;-61
2023/09/23 02:15:20;;;;;;;;;;;;;;;;;;7372972;19;1530;-61
2023/09/23 02:17:48;;;;;;;;;;;;;;;;;;7371380;19;1457;-61
2023/09/23 02:20:21;;;;;;;;;;;;;;;;;;7370387;19;1447;-61
2023/09/23 02:22:52;;;;;;;;;;;;;;;;;;7368453;19;1823;-59
2023/09/23 02:25:24;;;;;;;;;;;;;;;;;;7371199;19;1500;-62
2023/09/23 02:27:52;;;;;;;;;;;;;;;;;;7370782;19;1974;-62
2023/09/23 02:30:21;;;;;;;;;;;;;;;;;;7366712;19;1593;-63
2023/09/23 02:32:50;;;;;;;;;;;;;;;;;;7369572;19;806;-62
2023/09/23 02:35:18;;;;;;;;;;;;;;;;;;7368190;19;846;-61
2023/09/23 02:37:46;;;;;;;;;;;;;;;;;;7369912;19;859;-62
2023/09/23 02:40:14;;;;;;;;;;;;;;;;;;7366002;19;1332;-62
2023/09/23 02:42:43;;;;;;;;;;;;;;;;;;7365754;19;1858;-61
2023/09/23 02:45:12;;;;;;;;;;;;;;;;;;7366786;19;746;-63
2023/09/23 02:47:40;;;;;;;;;;;;;;;;;;7368238;19;905;-63
2023/09/23 02:50:09;;;;;;;;;;;;;;;;;;7365962;19;1294;-62
2023/09/23 02:52:38;;;;;;;;;;;;;;;;;;7369168;19;1326;-60
2023/09/23 02:55:07;;;;;;;;;;;;;;;;;;7366897;19;1240;-62
2023/09/23 02:57:36;;;;;;;;;;;;;;;;;;7369926;19;1142;-63
2023/09/23 03:00:15;;;;;;;;;;;;;;;;;;7368823;19;1584;-63
2023/09/23 03:02:45;;;;;;;;;;;;;;;;;;7366387;19;1860;-64
2023/09/23 03:05:16;;;;;;;;;;;;;;;;;;7371917;19;1695;-62
2023/09/23 03:07:48;;;;;;;;;;;;;;;;;;7368216;19;1599;-63
2023/09/23 03:10:19;;;;;;;;;;;;;;;;;;7368810;19;1713;-63
2023/09/23 03:12:51;;;;;;;;;;;;;;;;;;7370167;19;1445;-65
2023/09/23 03:15:22;;;;;;;;;;;;;;;;;;7369497;19;2138;-65
2023/09/23 03:17:53;;;;;;;;;;;;;;;;;;7370772;19;2062;-65
2023/09/23 03:20:26;;;;;;;;;;;;;;;;;;7365372;19;1783;-66
2023/09/23 03:22:54;;;;;;;;;;;;;;;;;;7365705;19;1858;-64
2023/09/23 03:25:22;;;;;;;;;;;;;;;;;;7370170;19;1260;-63
2023/09/23 03:27:51;;;;;;;;;;;;;;;;;;7370569;19;1347;-66
2023/09/23 03:30:19;;;;;;;;;;;;;;;;;;7365228;19;1622;-66
2023/09/23 03:32:49;;;;;;;;;;;;;;;;;;7369668;19;1675;-66
2023/09/23 03:35:23;;;;;;;;;;;;;;;;;;7369388;19;2177;-65
2023/09/23 03:37:52;;;;;;;;;;;;;;;;;;7370848;19;1659;-62
2023/09/23 03:40:24;;;;;;;;;;;;;;;;;;7365318;19;1677;-65
2023/09/23 03:42:53;;;;;;;;;;;;;;;;;;7367304;19;1845;-64
2023/09/23 03:45:22;;;;;;;;;;;;;;;;;;7364694;19;811;-66
2023/09/23 03:47:51;;;;;;;;;;;;;;;;;;7366526;19;1699;-67
2023/09/23 03:50:19;;;;;;;;;;;;;;;;;;7365108;19;1741;-66
2023/09/23 03:52:47;;;;;;;;;;;;;;;;;;7368796;19;1780;-62
2023/09/23 03:55:16;;;;;;;;;;;;;;;;;;7367802;19;1702;-65
2023/09/23 03:57:46;;;;;;;;;;;;;;;;;;7368780;19;1859;-66
2023/09/23 04:00:16;;;;;;;;;;;;;;;;;;7365975;19;1799;-65
2023/09/23 04:02:44;;;;;;;;;;;;;;;;;;7363642;19;1850;-66
2023/09/23 04:05:14;;;;;;;;;;;;;;;;;;7365451;19;1694;-65
2023/09/23 04:07:42;;;;;;;;;;;;;;;;;;7366968;19;1728;-64
2023/09/23 04:10:10;;;;;;;;;;;;;;;;;;7366140;19;1698;-67
2023/09/23 04:12:39;;;;;;;;;;;;;;;;;;7367738;19;1679;-66
2023/09/23 04:15:11;;;;;;;;;;;;;;;;;;7369739;19;1498;-62
2023/09/23 04:17:40;;;;;;;;;;;;;;;;;;7369845;19;1715;-66
2023/09/23 04:20:14;;;;;;;;;;;;;;;;;;7366397;19;1664;-65
2023/09/23 04:22:42;;;;;;;;;;;;;;;;;;7367437;19;1853;-67
2023/09/23 04:25:13;;;;;;;;;;;;;;;;;;7364098;19;725;-67
2023/09/23 04:27:42;;;;;;;;;;;;;;;;;;7365488;19;688;-67
2023/09/23 04:30:11;;;;;;;;;;;;;;;;;;7362919;19;1292;-66
2023/09/23 04:32:39;;;;;;;;;;;;;;;;;;7365001;19;880;-68
2023/09/23 04:35:07;;;;;;;;;;;;;;;;;;7364247;19;873;-66
2023/09/23 04:37:37;;;;;;;;;;;;;;;;;;7367792;19;850;-68
2023/09/23 04:40:06;;;;;;;;;;;;;;;;;;7363503;19;1366;-64
2023/09/23 04:42:34;;;;;;;;;;;;;;;;;;7363548;19;1881;-65
2023/09/23 04:45:02;;;;;;;;;;;;;;;;;;7364411;19;830;-67
2023/09/23 04:47:30;;;;;;;;;;;;;;;;;;7364422;19;860;-67
2023/09/23 04:49:59;;;;;;;;;;;;;;;;;;7362435;19;1647;-67
2023/09/23 04:52:27;;;;;;;;;;;;;;;;;;7367269;19;1860;-67
2023/09/23 04:54:55;;;;;;;;;;;;;;;;;;7366560;19;2064;-68
2023/09/23 04:57:23;;;;;;;;;;;;;;;;;;7368695;19;1542;-68
2023/09/23 04:59:52;;;;;;;;;;;;;;;;;;7364800;19;1983;-67
2023/09/23 05:02:20;;;;;;;;;;;;;;;;;;7366422;19;1857;-67
2023/09/23 05:04:53;;;;;;;;;;;;;;;;;;7365240;19;1699;-66
2023/09/23 05:07:21;;;;;;;;;;;;;;;;;;7367796;19;1799;-68
2023/09/23 05:09:49;;;;;;;;;;;;;;;;;;7364817;19;1844;-67
2023/09/23 05:12:18;;;;;;;;;;;;;;;;;;7366848;19;1754;-67
2023/09/23 05:14:47;;;;;;;;;;;;;;;;;;7368827;19;1712;-67
2023/09/23 05:17:16;;;;;;;;;;;;;;;;;;7373690;19;1701;-67
2023/09/23 05:19:46;;;;;;;;;;;;;;;;;;7371889;19;1874;-66
2023/09/23 05:22:14;;;;;;;;;;;;;;;;;;7374875;19;1850;-67
2023/09/23 05:24:47;;;;;;;;;;;;;;;;;;7372946;19;1574;-67
2023/09/23 05:27:15;;;;;;;;;;;;;;;;;;7372871;19;1723;-66
2023/09/23 05:29:44;;;;;;;;;;;;;;;;;;7371276;19;1748;-68
2023/09/23 05:32:13;;;;;;;;;;;;;;;;;;7374322;19;1829;-66
2023/09/23 05:34:42;;;;;;;;;;;;;;;;;;7371288;19;1604;-68
2023/09/23 05:37:12;;;;;;;;;;;;;;;;;;7371567;19;1805;-66
2023/09/23 05:39:44;;;;;;;;;;;;;;;;;;7372175;19;2081;-68
2023/09/23 05:42:13;;;;;;;;;;;;;;;;;;7371841;19;2243;-67
2023/09/23 05:44:42;;;;;;;;;;;;;;;;;;7370689;19;1673;-66
2023/09/23 05:47:10;;;;;;;;;;;;;;;;;;7373731;19;1172;-66
2023/09/23 05:49:38;;;;;;;;;;;;;;;;;;7371685;19;1827;-67
2023/09/23 05:52:07;;;;;;;;;;;;;;;;;;7371010;19;1817;-67
2023/09/23 05:54:35;;;;;;;;;;;;;;;;;;7371010;19;1966;-66
2023/09/23 05:57:03;;;;;;;;;;;;;;;;;;7372921;19;1798;-67
2023/09/23 05:59:31;;;;;;;;;;;;;;;;;;7368540;19;1347;-66
2023/09/23 06:01:59;;;;;;;;;;;;;;;;;;7372381;19;1842;-67
2023/09/23 06:04:29;;;;;;;;;;;;;;;;;;7369172;19;864;-67
2023/09/23 06:06:57;;;;;;;;;;;;;;;;;;7370215;19;862;-67
2023/09/23 06:09:26;;;;;;;;;;;;;;;;;;7368613;19;1375;-62
2023/09/23 06:11:54;;;;;;;;;;;;;;;;;;7370106;19;1936;-66
2023/09/23 06:14:23;;;;;;;;;;;;;;;;;;7371583;19;1611;-65
2023/09/23 06:16:51;;;;;;;;;;;;;;;;;;7373241;19;1732;-65
2023/09/23 06:19:19;;;;;;;;;;;;;;;;;;7370191;19;1510;-65
2023/09/23 06:21:48;;;;;;;;;;;;;;;;;;7373767;19;1928;-63
2023/09/23 06:24:16;;;;;;;;;;;;;;;;;;7365570;19;1856;-67
2023/09/23 06:26:45;;;;;;;;;;;;;;;;;;7368979;19;782;-65
2023/09/23 06:29:14;;;;;;;;;;;;;;;;;;7369373;19;1284;-66
2023/09/23 06:31:42;;;;;;;;;;;;;;;;;;7368921;19;860;-65
2023/09/23 06:34:10;;;;;;;;;;;;;;;;;;7369040;19;812;-66
2023/09/23 06:36:38;;;;;;;;;;;;;;;;;;7370037;19;923;-65
2023/09/23 06:39:06;;;;;;;;;;;;;;;;;;7370833;19;1842;-66
2023/09/23 06:41:35;;;;;;;;;;;;;;;;;;7369092;19;1932;-65
2023/09/23 06:44:03;;;;;;;;;;;;;;;;;;7365976;19;1853;-65
2023/09/23 06:46:31;;;;;;;;;;;;;;;;;;7367069;19;885;-63
2023/09/23 06:48:59;;;;;;;;;;;;;;;;;;7368273;19;1285;-65
2023/09/23 06:51:28;;;;;;;;;;;;;;;;;;7369101;19;839;-65
2023/09/23 06:53:56;;;;;;;;;;;;;;;;;;7368634;19;885;-65
2023/09/23 06:56:24;;;;;;;;;;;;;;;;;;7368248;19;810;-65
2023/09/23 06:58:53;;;;;;;;;;;;;;;;;;7367882;19;1317;-66
2023/09/23 07:01:21;;;;;;;;;;;;;;;;;;7367707;19;788;-65
2023/09/23 07:03:49;;;;;;;;;;;;;;;;;;7365910;19;1865;-65
2023/09/23 07:06:17;;;;;;;;;;;;;;;;;;7365392;19;1963;-66
2023/09/23 07:08:46;;;;;;;;;;;;;;;;;;7367896;19;1790;-64
2023/09/23 07:11:14;;;;;;;;;;;;;;;;;;7369406;19;2039;-63
2023/09/23 07:13:42;;;;;;;;;;;;;;;;;;7371116;19;1765;-65
2023/09/23 07:16:10;;;;;;;;;;;;;;;;;;7368930;19;2003;-64
2023/09/23 07:18:38;;;;;;;;;;;;;;;;;;7368094;19;1658;-64
2023/09/23 07:21:07;;;;;;;;;;;;;;;;;;7371265;19;1574;-64
2023/09/23 07:23:35;;;;;;;;;;;;;;;;;;7365271;19;1842;-66
2023/09/23 07:26:04;;;;;;;;;;;;;;;;;;7368914;19;1803;-65
2023/09/23 07:28:32;;;;;;;;;;;;;;;;;;7367747;19;1820;-62
2023/09/23 07:31:00;;;;;;;;;;;;;;;;;;7370724;19;1492;-64
2023/09/23 07:33:29;;;;;;;;;;;;;;;;;;7367594;19;1937;-64
2023/09/23 07:35:57;;;;;;;;;;;;;;;;;;7366048;19;1647;-62
2023/09/23 07:38:26;;;;;;;;;;;;;;;;;;7370235;19;1432;-64
2023/09/23 07:40:54;;;;;;;;;;;;;;;;;;7369499;19;1985;-64
2023/09/23 07:43:22;;;;;;;;;;;;;;;;;;7368637;19;1839;-65
2023/09/23 07:45:50;;;;;;;;;;;;;;;;;;7369622;19;1493;-64
2023/09/23 07:48:19;;;;;;;;;;;;;;;;;;7364099;19;1660;-65
2023/09/23 07:50:47;;;;;;;;;;;;;;;;;;7369209;19;1898;-64
2023/09/23 07:53:15;;;;;;;;;;;;;;;;;;7369324;19;1663;-64
2023/09/23 07:55:43;;;;;;;;;;;;;;;;;;7365347;19;870;-65
2023/09/23 07:58:11;;;;;;;;;;;;;;;;;;7366286;19;2060;-65
2023/09/23 08:00:39;;;;;;;;;;;;;;;;;;7369088;19;1748;-65
2023/09/23 08:03:08;;;;;;;;;;;;;;;;;;7367386;19;1848;-66
2023/09/23 08:05:36;;;;;;;;;;;;;;;;;;7367256;19;1722;-64
2023/09/23 08:08:04;;;;;;;;;;;;;;;;;;7367910;19;1686;-64
2023/09/23 08:10:32;;;;;;;;;;;;;;;;;;7363722;19;1782;-63
2023/09/23 08:13:00;;;;;;;;;;;;;;;;;;7369468;19;1659;-64
2023/09/23 08:15:28;;;;;;;;;;;;;;;;;;7369394;19;1400;-65
2023/09/23 08:17:57;;;;;;;;;;;;;;;;;;7366328;19;2010;-62
2023/09/23 08:20:25;;;;;;;;;;;;;;;;;;7363170;19;1925;-64
2023/09/23 08:22:54;;;;;;;;;;;;;;;;;;7366790;19;2018;-64
2023/09/23 08:25:22;;;;;;;;;;;;;;;;;;7369118;19;1631;-65
2023/09/23 08:27:50;;;;;;;;;;;;;;;;;;7364950;19;861;-64
2023/09/23 08:30:18;;;;;;;;;;;;;;;;;;7364316;19;1718;-66
2023/09/23 08:32:47;;;;;;;;;;;;;;;;;;7368214;19;1595;-65
2023/09/23 08:35:15;;;;;;;;;;;;;;;;;;7366423;19;1978;-65
2023/09/23 08:37:45;;;;;;;;;;;;;;;;;;7366586;19;2063;-64
2023/09/23 08:40:15;;;;;;;;;;;;;;;;;;7364719;19;1987;-65
2023/09/23 08:42:44;;;;;;;;;;;;;;;;;;7364410;19;1858;-64
2023/09/23 08:45:13;;;;;;;;;;;;;;;;;;7365068;19;1724;-62
2023/09/23 08:47:42;;;;;;;;;;;;;;;;;;7369448;19;1697;-62
2023/09/23 08:50:11;;;;;;;;;;;;;;;;;;7369399;19;1301;-64
2023/09/23 08:52:39;;;;;;;;;;;;;;;;;;7370848;19;879;-64
2023/09/23 08:55:07;;;;;;;;;;;;;;;;;;7371349;19;1563;-64
2023/09/23 08:57:35;;;;;;;;;;;;;;;;;;7373915;19;1508;-65
2023/09/23 09:00:07;;;;;;;;;;;;;;;;;;7370845;19;2033;-64
2023/09/23 09:02:35;;;;;;;;;;;;;;;;;;7374255;19;1607;-64
2023/09/23 09:05:04;;;;;;;;;;;;;;;;;;7368524;19;1857;-64
2023/09/23 09:07:33;;;;;;;;;;;;;;;;;;7374113;19;1427;-64
2023/09/23 09:10:01;;;;;;;;;;;;;;;;;;7369952;19;1382;-65
2023/09/23 09:12:29;;;;;;;;;;;;;;;;;;7373986;19;1656;-64
2023/09/23 09:14:57;;;;;;;;;;;;;;;;;;7373531;19;1678;-65
2023/09/23 09:17:25;;;;;;;;;;;;;;;;;;7370549;19;813;-64
2023/09/23 09:19:53;;;;;;;;;;;;;;;;;;7369969;19;1719;-63
2023/09/23 09:22:21;;;;;;;;;;;;;;;;;;7374405;19;1308;-64
2023/09/23 09:24:50;;;;;;;;;;;;;;;;;;7368069;19;1848;-64
2023/09/23 09:27:18;;;;;;;;;;;;;;;;;;7373550;19;1684;-59
2023/09/23 09:29:47;;;;;;;;;;;;;;;;;;7371466;19;1415;-62
2023/09/23 09:32:16;;;;;;;;;;;;;;;;;;7372784;19;1775;-64
2023/09/23 09:34:45;;;;;;;;;;;;;;;;;;7372585;19;1565;-64
2023/09/23 09:37:13;;;;;;;;;;;;;;;;;;7373197;19;1776;-62
2023/09/23 09:39:41;;;;;;;;;;;;;;;;;;7368252;19;1258;-64
2023/09/23 09:42:09;;;;;;;;;;;;;;;;;;7370518;19;1692;-63
2023/09/23 09:44:37;;;;;;;;;;;;;;;;;;7373167;19;1845;-63
2023/09/23 09:47:06;;;;;;;;;;;;;;;;;;7371037;19;1693;-64
2023/09/23 09:49:34;;;;;;;;;;;;;;;;;;7372299;19;1385;-64
2023/09/23 09:52:03;;;;;;;;;;;;;;;;;;7372690;19;2049;-64
2023/09/23 09:54:32;;;;;;;;;;;;;;;;;;7367666;19;2002;-65
2023/09/23 09:57:00;;;;;;;;;;;;;;;;;;7373707;19;1396;-63
2023/09/23 09:59:28;;;;;;;;;;;;;;;;;;7371953;19;1339;-67
2023/09/23 10:01:57;;;;;;;;;;;;;;;;;;7368879;19;882;-66
2023/09/23 10:04:26;;;;;;;;;;;;;;;;;;7368395;19;1842;-66
2023/09/23 10:06:54;;;;;;;;;;;;;;;;;;7371597;19;1547;-65
2023/09/23 10:09:22;;;;;;;;;;;;;;;;;;7370900;19;1800;-62
2023/09/23 10:11:51;;;;;;;;;;;;;;;;;;7370593;19;1654;-65
2023/09/23 10:14:19;;;;;;;;;;;;;;;;;;7372873;19;1777;-65
2023/09/23 10:16:48;;;;;;;;;;;;;;;;;;7368208;19;1828;-65
2023/09/23 10:19:19;;;;;;;;;;;;;;;;;;7372159;19;1648;-65
2023/09/23 10:21:47;;;;;;;;;;;;;;;;;;7368938;19;864;-66
2023/09/23 10:24:15;;;;;;;;;;;;;;;;;;7366106;19;1846;-64
2023/09/23 10:26:43;;;;;;;;;;;;;;;;;;7367456;19;845;-65
2023/09/23 10:29:11;;;;;;;;;;;;;;;;;;7367676;19;1310;-66
2023/09/23 10:31:39;;;;;;;;;;;;;;;;;;7368946;19;789;-67
2023/09/23 10:34:09;;;;;;;;;;;;;;;;;;7368858;19;873;-66
2023/09/23 10:36:38;;;;;;;;;;;;;;;;;;7368249;19;759;-63
2023/09/23 10:39:06;;;;;;;;;;;;;;;;;;7366966;19;1336;-65
2023/09/23 10:41:34;;;;;;;;;;;;;;;;;;7368739;19;956;-67
2023/09/23 10:44:03;;;;;;;;;;;;;;;;;;7368158;19;1846;-68
2023/09/23 10:46:31;;;;;;;;;;;;;;;;;;7368177;19;864;-67
2023/09/23 10:48:59;;;;;;;;;;;;;;;;;;7367511;19;1285;-64
2023/09/23 10:51:28;;;;;;;;;;;;;;;;;;7368297;19;863;-68
2023/09/23 10:53:56;;;;;;;;;;;;;;;;;;7368673;19;868;-68
2023/09/23 10:56:24;;;;;;;;;;;;;;;;;;7367615;19;797;-66
2023/09/23 10:58:53;;;;;;;;;;;;;;;;;;7367797;19;1309;-66
2023/09/23 11:01:21;;;;;;;;;;;;;;;;;;7368943;19;854;-66
2023/09/23 11:03:49;;;;;;;;;;;;;;;;;;7367900;19;1818;-66
2023/09/23 11:06:18;;;;;;;;;;;;;;;;;;7367457;19;899;-67
2023/09/23 11:08:46;;;;;;;;;;;;;;;;;;7367061;19;1290;-66
2023/09/23 11:11:14;;;;;;;;;;;;;;;;;;7364652;19;792;-67
2023/09/23 11:13:42;;;;;;;;;;;;;;;;;;7368299;19;875;-65
2023/09/23 11:16:10;;;;;;;;;;;;;;;;;;7367760;19;858;-64
2023/09/23 11:18:38;;;;;;;;;;;;;;;;;;7366720;19;1286;-67
2023/09/23 11:21:07;;;;;;;;;;;;;;;;;;7369084;19;1737;-66
2023/09/23 11:23:35;;;;;;;;;;;;;;;;;;7367709;19;1843;-66
2023/09/23 11:26:03;;;;;;;;;;;;;;;;;;7367107;19;820;-67
2023/09/23 11:28:31;;;;;;;;;;;;;;;;;;7366893;19;1352;-68
2023/09/23 11:30:59;;;;;;;;;;;;;;;;;;7367486;19;872;-67
2023/09/23 11:33:27;;;;;;;;;;;;;;;;;;7367140;19;837;-67
2023/09/23 11:35:57;;;;;;;;;;;;;;;;;;7366684;19;845;-67
2023/09/23 11:38:25;;;;;;;;;;;;;;;;;;7366685;19;1293;-66
2023/09/23 11:40:54;;;;;;;;;;;;;;;;;;7366936;19;825;-62
2023/09/23 11:43:22;;;;;;;;;;;;;;;;;;7367015;19;891;-65
2023/09/23 11:45:51;;;;;;;;;;;;;;;;;;7362647;19;1880;-65
2023/09/23 11:48:20;;;;;;;;;;;;;;;;;;7366392;19;1316;-64
2023/09/23 11:50:48;;;;;;;;;;;;;;;;;;7366891;19;872;-65
2023/09/23 11:53:18;;;;;;;;;;;;;;;;;;7366891;19;856;-63
2023/09/23 11:55:46;;;;;;;;;;;;;;;;;;7366840;19;762;-64
2023/09/23 11:58:14;;;;;;;;;;;;;;;;;;7366885;19;1281;-64
2023/09/23 12:00:43;;;;;;;;;;;;;;;;;;7366826;19;806;-64
2023/09/23 12:03:11;;;;;;;;;;;;;;;;;;7366900;19;831;-66
2023/09/23 12:05:39;;;;;;;;;;;;;;;;;;7363522;19;1818;-63
2023/09/23 12:08:09;;;;;;;;;;;;;;;;;;7366358;19;878;-61
2023/09/23 12:10:37;;;;;;;;;;;;;;;;;;7363683;19;1245;-65
2023/09/23 12:13:07;;;;;;;;;;;;;;;;;;7365980;19;838;-64
2023/09/23 12:15:35;;;;;;;;;;;;;;;;;;7365896;19;880;-62
2023/09/23 12:18:03;;;;;;;;;;;;;;;;;;7366380;19;884;-60
2023/09/23 12:20:31;;;;;;;;;;;;;;;;;;7363411;19;1325;-63
2023/09/23 12:23:00;;;;;;;;;;;;;;;;;;7368261;19;872;-61
2023/09/23 12:25:28;;;;;;;;;;;;;;;;;;7370650;19;1873;-66
2023/09/23 12:27:57;;;;;;;;;;;;;;;;;;7372641;19;865;-67
2023/09/23 12:30:25;;;;;;;;;;;;;;;;;;7370253;19;1269;-63
2023/09/23 12:32:53;;;;;;;;;;;;;;;;;;7371426;19;832;-63
2023/09/23 12:35:21;;;;;;;;;;;;;;;;;;7369850;19;992;-66
2023/09/23 12:37:49;;;;;;;;;;;;;;;;;;7371369;19;897;-62
2023/09/23 12:40:19;;;;;;;;;;;;;;;;;;7369512;19;1329;-61
2023/09/23 12:42:47;;;;;;;;;;;;;;;;;;7371599;19;839;-64
2023/09/23 12:45:15;;;;;;;;;;;;;;;;;;7370476;19;1847;-61
2023/09/23 12:47:44;;;;;;;;;;;;;;;;;;7372275;19;819;-62
2023/09/23 12:50:12;;;;;;;;;;;;;;;;;;7370259;19;1355;-61
2023/09/23 12:52:41;;;;;;;;;;;;;;;;;;7372410;19;828;-61
2023/09/23 12:55:10;;;;;;;;;;;;;;;;;;7371840;19;718;-65
2023/09/23 12:57:38;;;;;;;;;;;;;;;;;;7372400;19;841;-62
2023/09/23 13:00:06;;;;;;;;;;;;;;;;;;7370646;19;1283;-62
2023/09/23 13:02:35;;;;;;;;;;;;;;;;;;7372074;19;869;-61
2023/09/23 13:05:03;;;;;;;;;;;;;;;;;;7370131;19;1853;-64
2023/09/23 13:07:31;;;;;;;;;;;;;;;;;;7372523;19;870;-63
2023/09/23 13:09:59;;;;;;;;;;;;;;;;;;7370568;19;1343;-61
2023/09/23 13:12:28;;;;;;;;;;;;;;;;;;7371319;19;838;-65
2023/09/23 13:14:56;;;;;;;;;;;;;;;;;;7371061;19;849;-65
2023/09/23 13:17:24;;;;;;;;;;;;;;;;;;7371154;19;802;-63
2023/09/23 13:19:52;;;;;;;;;;;;;;;;;;7369640;19;1363;-64
2023/09/23 13:22:20;;;;;;;;;;;;;;;;;;7371172;19;766;-66
2023/09/23 13:24:49;;;;;;;;;;;;;;;;;;7370656;19;1850;-65
2023/09/23 13:27:17;;;;;;;;;;;;;;;;;;7371204;19;829;-65
2023/09/23 13:29:45;;;;;;;;;;;;;;;;;;7369665;19;1293;-62
2023/09/23 13:32:13;;;;;;;;;;;;;;;;;;7370196;19;876;-66
2023/09/23 13:34:43;;;;;;;;;;;;;;;;;;7367881;19;809;-65
2023/09/23 13:37:12;;;;;;;;;;;;;;;;;;7370612;19;618;-61
2023/09/23 13:39:41;;;;;;;;;;;;;;;;;;7368622;19;1274;-66
2023/09/23 13:42:09;;;;;;;;;;;;;;;;;;7370522;19;876;-67
2023/09/23 13:44:37;;;;;;;;;;;;;;;;;;7370679;19;1841;-67
2023/09/23 13:47:05;;;;;;;;;;;;;;;;;;7371113;19;793;-66
2023/09/23 13:49:34;;;;;;;;;;;;;;;;;;7369852;19;1376;-64
2023/09/23 13:52:03;;;;;;;;;;;;;;;;;;7370691;19;817;-65
2023/09/23 13:54:31;;;;;;;;;;;;;;;;;;7370991;19;742;-63
2023/09/23 13:56:59;;;;;;;;;;;;;;;;;;7371238;19;955;-63
2023/09/23 13:59:27;;;;;;;;;;;;;;;;;;7369908;19;1284;-65
2023/09/23 14:01:56;;;;;;;;;;;;;;;;;;7370334;19;769;-64
2023/09/23 14:04:24;;;;;;;;;;;;;;;;;;7370202;19;1863;-65
2023/09/23 14:06:52;;;;;;;;;;;;;;;;;;7370401;19;855;-65
2023/09/23 14:09:20;;;;;;;;;;;;;;;;;;7369329;19;1305;-64
2023/09/23 14:11:48;;;;;;;;;;;;;;;;;;7371144;19;877;-62
2023/09/23 14:14:16;;;;;;;;;;;;;;;;;;7371997;19;880;-65
2023/09/23 14:16:44;;;;;;;;;;;;;;;;;;7370806;19;878;-65
2023/09/23 14:19:13;;;;;;;;;;;;;;;;;;7369611;19;1361;-67
2023/09/23 14:21:41;;;;;;;;;;;;;;;;;;7371172;19;799;-65
2023/09/23 14:24:09;;;;;;;;;;;;;;;;;;7370674;19;813;-66
2023/09/23 14:26:38;;;;;;;;;;;;;;;;;;7367733;19;1859;-63
2023/09/23 14:29:06;;;;;;;;;;;;;;;;;;7369326;19;1321;-63
2023/09/23 14:31:34;;;;;;;;;;;;;;;;;;7369912;19;900;-65
2023/09/23 14:34:04;;;;;;;;;;;;;;;;;;7370420;19;780;-62
2023/09/23 14:36:32;;;;;;;;;;;;;;;;;;7367694;19;770;-63
2023/09/23 14:39:03;;;;;;;;;;;;;;;;;;7368209;19;1296;-61
2023/09/23 14:41:34;;;;;;;;;;;;;;;;;;7370332;19;742;-63
2023/09/23 14:44:02;;;;;;;;;;;;;;;;;;7370916;19;562;-64
2023/09/23 14:46:30;;;;;;;;;;;;;;;;;;7366581;19;1814;-63
2023/09/23 14:48:58;;;;;;;;;;;;;;;;;;7368844;19;1269;-63
2023/09/23 14:51:27;;;;;;;;;;;;;;;;;;7369467;19;810;-65
2023/09/23 14:53:55;;;;;;;;;;;;;;;;;;7369311;19;819;-64
2023/09/23 14:56:25;;;;;;;;;;;;;;;;;;7369298;19;972;-63
2023/09/23 14:58:53;;;;;;;;;;;;;;;;;;7368934;19;1352;-64
2023/09/23 15:01:22;;;;;;;;;;;;;;;;;;7369053;19;805;-63
2023/09/23 15:03:50;;;;;;;;;;;;;;;;;;7368893;19;861;-61
2023/09/23 15:06:18;;;;;;;;;;;;;;;;;;7366754;19;1868;-63
2023/09/23 15:08:46;;;;;;;;;;;;;;;;;;7368016;19;1346;-64
2023/09/23 15:11:15;;;;;;;;;;;;;;;;;;7368994;19;882;-63
2023/09/23 15:13:44;;;;;;;;;;;;;;;;;;7368603;19;849;-62
2023/09/23 15:16:12;;;;;;;;;;;;;;;;;;7367736;19;789;-63
2023/09/23 15:18:40;;;;;;;;;;;;;;;;;;7367262;19;1385;-60
2023/09/23 15:21:08;;;;;;;;;;;;;;;;;;7367738;19;714;-63
2023/09/23 15:23:36;;;;;;;;;;;;;;;;;;7368437;19;802;-62
2023/09/23 15:26:05;;;;;;;;;;;;;;;;;;7366232;19;1845;-65
2023/09/23 15:28:33;;;;;;;;;;;;;;;;;;7367687;19;1312;-65
2023/09/23 15:31:01;;;;;;;;;;;;;;;;;;7367795;19;844;-62
2023/09/23 15:33:29;;;;;;;;;;;;;;;;;;7367886;19;875;-61
2023/09/23 15:35:57;;;;;;;;;;;;;;;;;;7367282;19;900;-63
2023/09/23 15:38:25;;;;;;;;;;;;;;;;;;7367773;19;1230;-62
2023/09/23 15:40:54;;;;;;;;;;;;;;;;;;7367587;19;794;-64
2023/09/23 15:43:22;;;;;;;;;;;;;;;;;;7367110;19;816;-63
2023/09/23 15:45:50;;;;;;;;;;;;;;;;;;7365865;19;1834;-63
2023/09/23 15:48:18;;;;;;;;;;;;;;;;;;7367342;19;1292;-63
2023/09/23 15:50:47;;;;;;;;;;;;;;;;;;7367518;19;822;-63
2023/09/23 15:53:16;;;;;;;;;;;;;;;;;;7367941;19;735;-63
2023/09/23 15:55:44;;;;;;;;;;;;;;;;;;7367341;19;860;-62
2023/09/23 15:58:12;;;;;;;;;;;;;;;;;;7365324;19;888;-64
2023/09/23 16:00:40;;;;;;;;;;;;;;;;;;7364240;19;816;-62
2023/09/23 16:03:09;;;;;;;;;;;;;;;;;;7367158;19;829;-62
2023/09/23 16:05:37;;;;;;;;;;;;;;;;;;7365323;19;1828;-63
2023/09/23 16:08:06;;;;;;;;;;;;;;;;;;7367795;19;793;-65
2023/09/23 16:10:34;;;;;;;;;;;;;;;;;;7363479;19;1277;-64
2023/09/23 16:13:03;;;;;;;;;;;;;;;;;;7367500;19;829;-64
2023/09/23 16:15:32;;;;;;;;;;;;;;;;;;7365713;19;712;-63
2023/09/23 16:18:00;;;;;;;;;;;;;;;;;;7366658;19;790;-62
2023/09/23 16:20:28;;;;;;;;;;;;;;;;;;7364029;19;1717;-64
2023/09/23 16:22:56;;;;;;;;;;;;;;;;;;7366630;19;821;-63
2023/09/23 16:25:25;;;;;;;;;;;;;;;;;;7365649;19;1838;-62
2023/09/23 16:27:53;;;;;;;;;;;;;;;;;;7366655;19;750;-62
2023/09/23 16:30:21;;;;;;;;;;;;;;;;;;7363703;19;1309;-61
2023/09/23 16:32:49;;;;;;;;;;;;;;;;;;7365969;19;869;-63
2023/09/23 16:35:17;;;;;;;;;;;;;;;;;;7364283;19;811;-63
2023/09/23 16:37:46;;;;;;;;;;;;;;;;;;7365567;19;845;-63
2023/09/23 16:40:14;;;;;;;;;;;;;;;;;;7363160;19;1289;-65
2023/09/23 16:42:42;;;;;;;;;;;;;;;;;;7365272;19;836;-64
2023/09/23 16:45:10;;;;;;;;;;;;;;;;;;7365519;19;1841;-64
2023/09/23 16:47:39;;;;;;;;;;;;;;;;;;7365342;19;853;-64
2023/09/23 16:50:07;;;;;;;;;;;;;;;;;;7363238;19;1274;-63
2023/09/23 16:52:35;;;;;;;;;;;;;;;;;;7365413;19;842;-64
2023/09/23 16:55:04;;;;;;;;;;;;;;;;;;7365218;19;887;-63
2023/09/23 16:57:32;;;;;;;;;;;;;;;;;;7365615;19;804;-63
2023/09/23 17:00:01;;;;;;;;;;;;;;;;;;7362798;19;1274;-63
2023/09/23 17:02:29;;;;;;;;;;;;;;;;;;7364752;19;910;-65
2023/09/23 17:04:58;;;;;;;;;;;;;;;;;;7364262;19;863;-64
2023/09/23 17:07:27;;;;;;;;;;;;;;;;;;7361650;19;1845;-64
2023/09/23 17:09:55;;;;;;;;;;;;;;;;;;7366782;19;1306;-63
2023/09/23 17:12:23;;;;;;;;;;;;;;;;;;7371268;19;874;-63
2023/09/23 17:14:51;;;;;;;;;;;;;;;;;;7370662;19;790;-62
2023/09/23 17:17:20;;;;;;;;;;;;;;;;;;7370937;19;812;-62